Datum - Zeit
Döttingen
TemperaturTaupunktFeuchteSolar Wind aus
Richtung
Windböenaus
Richtung
Luftdruck
(QFF)
RegenRegen
Stärke
20.09.2018 - 00.00Uhr16.8 °C14.7 °C87 %0.0 W/m²1.9 km/hOst-SO4.0 km/hOst-SO1020.3 hPa0.0 mm0.0 mm/h
20.09.2018 - 00.05Uhr17.1 °C14.9 °C87 %0.0 W/m²0.7 km/hOst-SO1.8 km/hOst-SO1020.2 hPa0.0 mm0.0 mm/h
20.09.2018 - 00.10Uhr16.8 °C14.6 °C87 %0.0 W/m²0.5 km/hOst-SO1.8 km/hOst-SO1020.3 hPa0.0 mm0.0 mm/h
20.09.2018 - 00.15Uhr16.5 °C14.3 °C87 %0.0 W/m²0.6 km/hOst-SO1.8 km/hOst-SO1020.2 hPa0.0 mm0.0 mm/h
20.09.2018 - 00.20Uhr16.3 °C14.3 °C88 %0.0 W/m²0.0 km/hOst-SO0.0 km/hNorden1020.2 hPa0.0 mm0.0 mm/h
20.09.2018 - 00.25Uhr16.2 °C14.2 °C88 %0.0 W/m²0.0 km/hOst-SO0.0 km/hNorden1020.2 hPa0.0 mm0.0 mm/h
20.09.2018 - 00.30Uhr16.3 °C14.3 °C88 %0.0 W/m²0.3 km/hOst-SO1.8 km/hOst-SO1020.2 hPa0.0 mm0.0 mm/h
20.09.2018 - 00.35Uhr16.2 °C14.2 °C88 %0.0 W/m²0.9 km/hOst-SO1.8 km/hOst-SO1020.2 hPa0.0 mm0.0 mm/h
20.09.2018 - 00.40Uhr16.0 °C14.0 °C88 %0.0 W/m²2.3 km/hOst-SO4.0 km/hOst-SO1020.2 hPa0.0 mm0.0 mm/h
20.09.2018 - 00.45Uhr16.1 °C14.1 °C88 %0.0 W/m²1.4 km/hOst-SO4.0 km/hOst-SO1020.2 hPa0.0 mm0.0 mm/h
20.09.2018 - 00.50Uhr16.2 °C14.2 °C88 %0.0 W/m²2.7 km/hOst-SO4.0 km/hOst-SO1020.1 hPa0.0 mm0.0 mm/h
20.09.2018 - 00.55Uhr16.2 °C14.2 °C88 %0.0 W/m²2.8 km/hOst-SO4.0 km/hOst-SO1020.1 hPa0.0 mm0.0 mm/h
20.09.2018 - 01.00Uhr16.1 °C14.1 °C88 %0.0 W/m²0.8 km/hOst-SO1.8 km/hOst-SO1020.1 hPa0.0 mm0.0 mm/h
20.09.2018 - 01.05Uhr15.9 °C13.9 °C88 %0.0 W/m²1.1 km/hOst-SO4.0 km/hOst-SO1020.1 hPa0.0 mm0.0 mm/h
20.09.2018 - 01.10Uhr16.1 °C14.1 °C88 %0.0 W/m²1.1 km/hOst-SO4.0 km/hOst-SO1020.1 hPa0.0 mm0.0 mm/h
20.09.2018 - 01.15Uhr16.2 °C14.2 °C88 %0.0 W/m²0.0 km/hOst-SO0.0 km/hNorden1020.1 hPa0.0 mm0.0 mm/h
20.09.2018 - 01.20Uhr16.0 °C14.0 °C88 %0.0 W/m²0.2 km/hOst-SO1.8 km/hOst-SO1020.2 hPa0.0 mm0.0 mm/h
20.09.2018 - 01.25Uhr15.8 °C13.8 °C88 %0.0 W/m²1.0 km/hOst-SO4.0 km/hOst-SO1020.2 hPa0.0 mm0.0 mm/h
20.09.2018 - 01.30Uhr16.0 °C14.0 °C88 %0.0 W/m²1.3 km/hOst-SO4.0 km/hOst-SO1020.3 hPa0.0 mm0.0 mm/h
20.09.2018 - 01.35Uhr16.1 °C14.1 °C88 %0.0 W/m²0.4 km/hOst-SO1.8 km/hOst-SO1020.3 hPa0.0 mm0.0 mm/h
20.09.2018 - 01.40Uhr15.9 °C13.9 °C88 %0.0 W/m²0.0 km/hOst-SO0.0 km/hNorden1020.3 hPa0.0 mm0.0 mm/h
20.09.2018 - 01.45Uhr15.6 °C13.6 °C88 %0.0 W/m²0.0 km/hOst-SO0.0 km/hNorden1020.3 hPa0.0 mm0.0 mm/h
20.09.2018 - 01.50Uhr15.7 °C13.7 °C88 %0.0 W/m²0.0 km/hOst-SO0.0 km/hNorden1020.3 hPa0.0 mm0.0 mm/h
20.09.2018 - 01.55Uhr15.7 °C13.7 °C88 %0.0 W/m²0.0 km/hOst-SO0.0 km/hNorden1020.3 hPa0.0 mm0.0 mm/h
20.09.2018 - 02.00Uhr15.4 °C13.4 °C88 %0.0 W/m²1.1 km/hOst-SO4.0 km/hOst-SO1020.3 hPa0.0 mm0.0 mm/h
20.09.2018 - 02.05Uhr15.2 °C13.2 °C88 %0.0 W/m²0.9 km/hOst-SO1.8 km/hOst-SO1020.3 hPa0.0 mm0.0 mm/h
20.09.2018 - 02.10Uhr15.4 °C13.4 °C88 %0.0 W/m²0.5 km/hOst-SO1.8 km/hOst-SO1020.3 hPa0.0 mm0.0 mm/h
20.09.2018 - 02.15Uhr15.4 °C13.4 °C88 %0.0 W/m²1.0 km/hOst-SO1.8 km/hOst-SO1020.3 hPa0.0 mm0.0 mm/h
20.09.2018 - 02.20Uhr15.2 °C13.2 °C88 %0.0 W/m²0.2 km/hOst-SO1.8 km/hOst-SO1020.3 hPa0.0 mm0.0 mm/h
20.09.2018 - 02.25Uhr15.3 °C13.3 °C88 %0.0 W/m²1.9 km/hOst-SO4.0 km/hOst-SO1020.2 hPa0.0 mm0.0 mm/h
20.09.2018 - 02.30Uhr15.2 °C13.2 °C88 %0.0 W/m²2.0 km/hOst-SO8.3 km/hOst-SO1020.2 hPa0.0 mm0.0 mm/h
20.09.2018 - 02.35Uhr15.1 °C13.1 °C88 %0.0 W/m²2.4 km/hOst-SO8.3 km/hOst-SO1020.1 hPa0.0 mm0.0 mm/h
20.09.2018 - 02.40Uhr15.0 °C13.0 °C88 %0.0 W/m²1.6 km/hOst-SO8.3 km/hOst-SO1020.1 hPa0.0 mm0.0 mm/h
20.09.2018 - 02.45Uhr15.0 °C13.0 °C88 %0.0 W/m²0.9 km/hOst-SO1.8 km/hOst-SO1020.1 hPa0.0 mm0.0 mm/h
20.09.2018 - 02.50Uhr15.0 °C13.1 °C89 %0.0 W/m²1.2 km/hOst-SO4.0 km/hOst-SO1020.1 hPa0.0 mm0.0 mm/h
20.09.2018 - 02.55Uhr15.0 °C13.1 °C88 %0.0 W/m²0.0 km/hOst-SO0.0 km/hNorden1020.1 hPa0.0 mm0.0 mm/h
20.09.2018 - 03.00Uhr15.0 °C13.2 °C89 %0.0 W/m²0.5 km/hOst-SO1.8 km/hOst-SO1020.0 hPa0.0 mm0.0 mm/h
20.09.2018 - 03.05Uhr15.1 °C13.1 °C88 %0.0 W/m²1.4 km/hOst-SO4.0 km/hOst-SO1020.0 hPa0.0 mm0.0 mm/h
20.09.2018 - 03.10Uhr15.0 °C13.1 °C88 %0.0 W/m²1.1 km/hOst-SO4.0 km/hOst-SO1020.0 hPa0.0 mm0.0 mm/h
20.09.2018 - 03.15Uhr14.9 °C13.1 °C89 %0.0 W/m²0.0 km/hOst-SO0.0 km/hNorden1020.0 hPa0.0 mm0.0 mm/h
20.09.2018 - 03.20Uhr14.8 °C13.0 °C89 %0.0 W/m²0.0 km/hOst-SO0.0 km/hNorden1020.1 hPa0.0 mm0.0 mm/h
20.09.2018 - 03.25Uhr15.0 °C13.2 °C89 %0.0 W/m²0.0 km/hOst-SO0.0 km/hNorden1020.1 hPa0.0 mm0.0 mm/h
20.09.2018 - 03.30Uhr14.9 °C13.0 °C89 %0.0 W/m²0.0 km/hOst-SO0.0 km/hNorden1020.0 hPa0.0 mm0.0 mm/h
20.09.2018 - 03.35Uhr14.8 °C12.9 °C89 %0.0 W/m²0.0 km/hOst-SO0.0 km/hNorden1020.0 hPa0.0 mm0.0 mm/h
20.09.2018 - 03.40Uhr14.8 °C12.8 °C88 %0.0 W/m²0.0 km/hOst-SO0.0 km/hNorden1020.0 hPa0.0 mm0.0 mm/h
20.09.2018 - 03.45Uhr14.8 °C12.8 °C88 %0.0 W/m²0.0 km/hOst-SO0.0 km/hNorden1020.0 hPa0.0 mm0.0 mm/h
20.09.2018 - 03.50Uhr14.9 °C13.1 °C89 %0.0 W/m²0.0 km/hOst-SO0.0 km/hNorden1020.0 hPa0.0 mm0.0 mm/h
20.09.2018 - 03.55Uhr14.8 °C12.8 °C88 %0.0 W/m²0.0 km/hOst-SO0.0 km/hNorden1020.0 hPa0.0 mm0.0 mm/h
20.09.2018 - 04.00Uhr14.7 °C12.8 °C88 %0.0 W/m²0.0 km/hOst-SO0.0 km/hNorden1020.0 hPa0.0 mm0.0 mm/h
20.09.2018 - 04.05Uhr14.7 °C12.8 °C89 %0.0 W/m²0.0 km/hOst-SO0.0 km/hNorden1020.0 hPa0.0 mm0.0 mm/h
20.09.2018 - 04.10Uhr14.5 °C12.7 °C89 %0.0 W/m²0.3 km/hOst-SO1.8 km/hOst-SO1020.0 hPa0.0 mm0.0 mm/h
20.09.2018 - 04.15Uhr14.4 °C12.5 °C89 %0.0 W/m²0.0 km/hOst-SO0.0 km/hNorden1020.0 hPa0.0 mm0.0 mm/h
20.09.2018 - 04.20Uhr14.3 °C12.5 °C89 %0.0 W/m²0.0 km/hOst-SO0.0 km/hNorden1020.0 hPa0.0 mm0.0 mm/h
20.09.2018 - 04.25Uhr14.3 °C12.5 °C89 %0.0 W/m²0.0 km/hOst-SO0.0 km/hNorden1020.0 hPa0.0 mm0.0 mm/h
20.09.2018 - 04.30Uhr14.4 °C12.6 °C89 %0.0 W/m²0.0 km/hOst-SO0.0 km/hNorden1020.0 hPa0.0 mm0.0 mm/h
20.09.2018 - 04.35Uhr14.4 °C12.6 °C89 %0.0 W/m²0.0 km/hOst-SO0.0 km/hNorden1020.0 hPa0.0 mm0.0 mm/h
20.09.2018 - 04.40Uhr14.4 °C12.6 °C89 %0.0 W/m²0.0 km/hOst-SO0.0 km/hNorden1020.1 hPa0.0 mm0.0 mm/h
20.09.2018 - 04.45Uhr14.3 °C12.5 °C89 %0.0 W/m²0.0 km/hOst-SO0.0 km/hNorden1020.1 hPa0.0 mm0.0 mm/h
20.09.2018 - 04.50Uhr14.2 °C12.4 °C89 %0.0 W/m²0.0 km/hOst-SO0.0 km/hNorden1020.2 hPa0.0 mm0.0 mm/h
20.09.2018 - 04.55Uhr14.2 °C12.4 °C89 %0.0 W/m²0.0 km/hOst-SO0.0 km/hNorden1020.2 hPa0.0 mm0.0 mm/h
20.09.2018 - 05.00Uhr14.3 °C12.5 °C89 %0.0 W/m²0.0 km/hOst-SO0.0 km/hNorden1020.2 hPa0.0 mm0.0 mm/h
20.09.2018 - 05.05Uhr14.0 °C12.2 °C89 %0.0 W/m²4.9 km/hOst-SO8.3 km/hOst-SO1020.2 hPa0.0 mm0.0 mm/h
20.09.2018 - 05.10Uhr13.8 °C12.0 °C89 %0.0 W/m²1.8 km/hOst-SO8.3 km/hOst-SO1020.2 hPa0.0 mm0.0 mm/h
20.09.2018 - 05.15Uhr13.9 °C12.1 °C89 %0.0 W/m²0.9 km/hOst-SO1.8 km/hOst-SO1020.2 hPa0.0 mm0.0 mm/h
20.09.2018 - 05.20Uhr14.0 °C12.2 °C89 %0.0 W/m²1.8 km/hOst-SO8.3 km/hOst-SO1020.2 hPa0.0 mm0.0 mm/h
20.09.2018 - 05.25Uhr14.1 °C12.3 °C89 %0.0 W/m²3.0 km/hOst-SO4.0 km/hOst-SO1020.2 hPa0.0 mm0.0 mm/h